createdAt,value
2023-02-11T00:01:35.453Z,13.63
2023-02-11T00:05:37.145Z,12.77
2023-02-11T00:09:38.605Z,13.55
2023-02-11T00:13:40.291Z,14.98
2023-02-11T00:17:41.746Z,18.73
2023-02-11T00:21:43.223Z,7.07
2023-02-11T00:25:45.640Z,16.40
2023-02-11T00:29:47.126Z,12.73
2023-02-11T00:33:48.904Z,16.50
2023-02-11T00:37:52.632Z,16.58
2023-02-11T00:41:54.104Z,14.82
2023-02-11T00:45:55.574Z,17.40
2023-02-11T00:49:57.070Z,13.15
2023-02-11T00:53:58.554Z,17.67
2023-02-11T00:58:00.113Z,17.35
2023-02-11T01:02:01.643Z,15.73
2023-02-11T01:06:03.493Z,18.30
2023-02-11T01:10:05.383Z,12.25
2023-02-11T01:14:06.904Z,15.95
2023-02-11T01:18:08.333Z,14.10
2023-02-11T01:22:09.867Z,17.90
2023-02-11T01:26:11.410Z,12.23
2023-02-11T01:30:14.107Z,17.95
2023-02-11T01:34:16.158Z,13.68
2023-02-11T01:38:23.605Z,8.65
2023-02-11T01:42:25.124Z,12.15
2023-02-11T01:46:29.671Z,11.85
2023-02-11T01:50:31.647Z,6.88
2023-02-11T01:54:55.359Z,15.95
2023-02-11T01:59:03.846Z,11.35
2023-02-11T02:03:10.226Z,12.40
2023-02-11T02:07:19.802Z,8.23
2023-02-11T02:11:21.293Z,19.80
2023-02-11T02:15:34.502Z,6.88
2023-02-11T02:20:19.986Z,7.78
2023-02-11T02:24:39.701Z,6.75
2023-02-11T02:29:19.587Z,9.40
2023-02-11T02:33:25.376Z,16.50
2023-02-11T02:37:29.534Z,19.17
2023-02-11T02:41:34.286Z,19.27
2023-02-11T02:45:35.692Z,22.10
2023-02-11T02:49:37.089Z,12.82
2023-02-11T02:53:54.181Z,11.90
2023-02-11T02:58:10.468Z,12.70
2023-02-11T03:02:24.811Z,8.15
2023-02-11T03:06:48.333Z,9.18
2023-02-11T03:10:53.102Z,7.72
2023-02-11T03:14:54.588Z,14.13
2023-02-11T03:19:21.407Z,12.75
2023-02-11T03:23:35.169Z,11.43
2023-02-11T03:27:53.012Z,16.20
2023-02-11T03:32:00.572Z,14.68
2023-02-11T03:36:15.099Z,18.90
2023-02-11T03:40:23.652Z,17.25
2023-02-11T03:44:28.612Z,17.10
2023-02-11T03:48:34.883Z,19.05
2023-02-11T03:52:38.087Z,18.58
2023-02-11T03:56:51.115Z,17.95
2023-02-11T04:00:52.739Z,18.75
2023-02-11T04:04:54.315Z,17.02
2023-02-11T04:08:56.200Z,18.15
2023-02-11T04:12:57.658Z,20.55
2023-02-11T04:16:59.085Z,17.52
2023-02-11T04:21:00.601Z,14.85
2023-02-11T04:25:02.230Z,19.15
2023-02-11T04:29:03.724Z,7.80
2023-02-11T04:33:05.165Z,21.27
2023-02-11T04:37:06.754Z,22.65
2023-02-11T04:41:08.288Z,9.93
2023-02-11T04:45:09.830Z,23.65
2023-02-11T04:49:13.920Z,24.73
2023-02-11T04:53:15.363Z,21.65
2023-02-11T04:57:17.076Z,11.18
2023-02-11T05:01:18.652Z,20.85
2023-02-11T05:05:20.116Z,25.63
2023-02-11T05:09:21.728Z,23.13
2023-02-11T05:13:23.335Z,24.48
2023-02-11T05:17:24.831Z,22.67
2023-02-11T05:21:26.461Z,25.05
2023-02-11T05:25:27.856Z,18.08
2023-02-11T05:29:29.444Z,21.15
2023-02-11T05:33:31.006Z,20.75
2023-02-11T05:37:32.486Z,26.85
2023-02-11T05:41:33.989Z,24.48
2023-02-11T05:45:35.515Z,20.48
2023-02-11T05:49:36.974Z,26.52
2023-02-11T05:53:38.427Z,26.90
2023-02-11T05:57:39.901Z,28.38
2023-02-11T06:01:41.621Z,14.93
2023-02-11T06:05:44.888Z,24.98
2023-02-11T06:09:46.431Z,16.02
2023-02-11T06:13:47.855Z,30.45
2023-02-11T06:17:49.318Z,24.23
2023-02-11T06:21:50.740Z,31.40
2023-02-11T06:25:53.297Z,24.10
2023-02-11T06:29:56.999Z,30.67
2023-02-11T06:33:59.238Z,21.73
2023-02-11T06:38:01.362Z,29.73
2023-02-11T06:42:02.862Z,21.90
2023-02-11T06:46:04.562Z,26.38
2023-02-11T06:50:08.736Z,30.25
2023-02-11T06:54:12.175Z,24.40
2023-02-11T06:58:13.742Z,30.35
2023-02-11T07:02:15.213Z,27.73
2023-02-11T07:06:20.508Z,24.23
2023-02-11T07:10:21.982Z,29.85
2023-02-11T07:14:23.482Z,29.20
2023-02-11T07:18:24.935Z,30.92
2023-02-11T07:22:26.519Z,22.17
2023-02-11T07:26:29.063Z,27.30
2023-02-11T07:30:30.486Z,25.67
2023-02-11T07:34:32.157Z,20.95
2023-02-11T07:38:35.052Z,19.63
2023-02-11T07:42:36.856Z,25.42
2023-02-11T07:46:42.863Z,27.13
2023-02-11T07:50:44.434Z,26.98
2023-02-11T07:54:46.132Z,29.85
2023-02-11T07:58:47.996Z,28.75
2023-02-11T08:02:49.463Z,36.92
2023-02-11T08:06:52.782Z,24.40
2023-02-11T08:10:54.342Z,24.73
2023-02-11T08:14:56.302Z,19.23
2023-02-11T08:19:00.542Z,27.10
2023-02-11T08:23:02.157Z,28.88
2023-02-11T08:27:03.714Z,18.70
2023-02-11T08:31:15.852Z,27.17
2023-02-11T08:35:17.476Z,24.90
2023-02-11T08:39:22.596Z,25.67
2023-02-11T08:43:25.226Z,23.30
2023-02-11T08:47:26.949Z,26.88
2023-02-11T08:51:31.464Z,23.42
2023-02-11T08:55:32.913Z,26.02
2023-02-11T08:59:34.616Z,27.63
2023-02-11T09:03:36.097Z,24.27
2023-02-11T09:07:37.569Z,28.63
2023-02-11T09:11:40.654Z,21.75
2023-02-11T09:15:45.349Z,24.50
2023-02-11T09:19:46.822Z,24.17
2023-02-11T09:23:48.683Z,24.48
2023-02-11T09:27:51.297Z,26.95
2023-02-11T09:31:52.910Z,21.92
2023-02-11T09:35:54.448Z,19.67
2023-02-11T09:39:55.907Z,18.75
2023-02-11T09:43:59.668Z,18.70
2023-02-11T09:48:27.506Z,19.73
2023-02-11T09:52:41.662Z,21.58
2023-02-11T09:56:43.164Z,24.58
2023-02-11T10:01:06.798Z,21.40
2023-02-11T10:05:29.604Z,21.55
2023-02-11T10:09:49.733Z,19.85
2023-02-11T10:14:03.198Z,27.05
2023-02-11T10:18:34.370Z,22.30
2023-02-11T10:22:46.900Z,20.98
2023-02-11T10:26:49.036Z,23.83
2023-02-11T10:31:15.775Z,16.30
2023-02-11T10:35:21.629Z,20.48
2023-02-11T10:39:26.315Z,23.15
2023-02-11T10:43:30.747Z,19.88
2023-02-11T10:47:37.683Z,18.50
2023-02-11T10:51:39.140Z,14.48
2023-02-11T10:55:50.689Z,22.30
2023-02-11T10:59:59.122Z,21.73
2023-02-11T11:04:00.708Z,22.35
2023-02-11T11:08:05.897Z,15.20
2023-02-11T11:12:25.088Z,25.05
2023-02-11T11:16:29.459Z,21.08
2023-02-11T11:20:36.115Z,26.90
2023-02-11T11:24:46.518Z,15.32
2023-02-11T11:29:16.148Z,17.08
2023-02-11T11:33:24.985Z,19.05
2023-02-11T11:37:30.107Z,16.30
2023-02-11T11:41:34.004Z,20.10
2023-02-11T11:45:35.954Z,19.38
2023-02-11T11:50:11.975Z,26.10
2023-02-11T11:54:17.581Z,20.08
2023-02-11T11:58:22.048Z,25.90
2023-02-11T12:02:59.944Z,27.00
2023-02-11T12:07:25.883Z,23.67
2023-02-11T12:11:44.568Z,20.80
2023-02-11T12:15:56.163Z,23.48
2023-02-11T12:20:17.953Z,21.80
2023-02-11T12:24:27.428Z,17.85
2023-02-11T12:28:34.919Z,22.05
2023-02-11T12:33:05.362Z,21.55
2023-02-11T12:37:19.914Z,18.23
2023-02-11T12:42:12.134Z,11.57
2023-02-11T12:46:31.506Z,11.60
2023-02-11T12:51:00.647Z,21.92
2023-02-11T12:55:19.181Z,17.38
2023-02-11T12:59:29.699Z,12.40
2023-02-11T13:03:44.549Z,17.50
2023-02-11T13:07:47.597Z,18.85
2023-02-11T13:11:53.607Z,16.08
2023-02-11T13:16:09.893Z,18.52
2023-02-11T13:20:33.325Z,12.65
2023-02-11T13:24:49.290Z,16.20
2023-02-11T13:29:17.438Z,12.80
2023-02-11T13:33:30.064Z,18.70
2023-02-11T13:37:38.934Z,16.77
2023-02-11T13:41:41.703Z,19.63
2023-02-11T13:45:46.652Z,18.20
2023-02-11T13:49:53.365Z,8.93
2023-02-11T13:53:57.565Z,12.73
2023-02-11T13:58:28.119Z,10.52
2023-02-11T14:02:52.748Z,12.07
2023-02-11T14:07:47.143Z,16.48
2023-02-11T14:11:56.189Z,11.55
2023-02-11T14:16:08.487Z,18.50
2023-02-11T14:20:36.891Z,19.25
2023-02-11T14:24:38.345Z,10.27
2023-02-11T14:28:44.704Z,15.80
2023-02-11T14:32:58.285Z,8.32
2023-02-11T14:37:08.919Z,17.35
2023-02-11T14:41:22.883Z,14.40
2023-02-11T14:45:28.752Z,16.88
2023-02-11T14:49:40.221Z,16.33
2023-02-11T14:53:48.424Z,9.93
2023-02-11T14:58:11.948Z,15.93
2023-02-11T15:02:26.127Z,9.35
2023-02-11T15:06:40.943Z,9.73
2023-02-11T15:10:44.561Z,12.50
2023-02-11T15:14:49.095Z,75.07
2023-02-11T15:18:56.509Z,18.88
2023-02-11T15:23:04.833Z,12.93
2023-02-11T15:27:12.699Z,15.23
2023-02-11T15:31:16.768Z,9.20
2023-02-11T15:35:18.897Z,15.60
2023-02-11T15:39:32.451Z,15.35
2023-02-11T15:43:44.478Z,14.18
2023-02-11T15:47:53.328Z,6.15
2023-02-11T15:51:57.079Z,14.43
2023-02-11T15:56:25.344Z,11.20
2023-02-11T16:00:35.694Z,14.05
2023-02-11T16:04:37.772Z,14.57
2023-02-11T16:08:41.534Z,38.78
2023-02-11T16:12:54.529Z,6.05
2023-02-11T16:17:12.028Z,16.60
2023-02-11T16:21:18.756Z,11.63
2023-02-11T16:25:22.126Z,17.05
2023-02-11T16:29:27.212Z,14.02
2023-02-11T16:33:28.867Z,14.55
2023-02-11T16:37:30.388Z,13.45
2023-02-11T16:41:31.885Z,14.05
2023-02-11T16:45:38.449Z,6.30
2023-02-11T16:49:41.712Z,13.25
2023-02-11T16:53:43.162Z,14.63
2023-02-11T16:57:44.697Z,13.85
2023-02-11T17:01:47.442Z,13.65
2023-02-11T17:05:58.097Z,12.90
2023-02-11T17:09:59.773Z,9.82
2023-02-11T17:14:01.195Z,11.80
2023-02-11T17:18:02.973Z,12.32
2023-02-11T17:22:04.914Z,12.07
2023-02-11T17:26:07.190Z,12.05
2023-02-11T17:30:10.231Z,11.45
2023-02-11T17:34:12.041Z,12.27
2023-02-11T17:38:13.498Z,10.75
2023-02-11T17:42:15.080Z,4.25
2023-02-11T17:46:17.214Z,12.80
2023-02-11T17:50:18.873Z,11.75
2023-02-11T17:54:20.850Z,10.02
2023-02-11T17:58:23.025Z,10.05
2023-02-11T18:02:24.582Z,11.50
2023-02-11T18:06:26.289Z,10.48
2023-02-11T18:10:27.792Z,8.48
2023-02-11T18:14:29.284Z,10.73
2023-02-11T18:18:31.296Z,9.05
2023-02-11T18:22:38.440Z,8.50
2023-02-11T18:26:40.190Z,7.43
2023-02-11T18:30:41.680Z,9.35
2023-02-11T18:34:43.579Z,9.98
2023-02-11T18:38:45.198Z,8.95
2023-02-11T18:42:46.823Z,8.77
2023-02-11T18:46:48.330Z,9.25
2023-02-11T18:50:49.848Z,6.55
2023-02-11T18:54:52.231Z,8.85
2023-02-11T18:58:56.085Z,8.55
2023-02-11T19:02:58.520Z,9.18
2023-02-11T19:07:03.149Z,8.75
2023-02-11T19:11:05.055Z,8.68
2023-02-11T19:15:07.760Z,9.05
2023-02-11T19:19:09.548Z,9.10
2023-02-11T19:23:11.247Z,7.07
2023-02-11T19:27:12.802Z,8.73
2023-02-11T19:31:14.623Z,8.98
2023-02-11T19:35:16.268Z,6.35
2023-02-11T19:39:18.480Z,9.32
2023-02-11T19:43:19.921Z,8.43
2023-02-11T19:47:27.563Z,8.93
2023-02-11T19:51:30.090Z,8.43
2023-02-11T19:55:34.641Z,9.02
2023-02-11T19:59:36.148Z,7.93
2023-02-11T20:03:39.722Z,9.50
2023-02-11T20:07:42.890Z,8.52
2023-02-11T20:11:44.540Z,9.63
2023-02-11T20:15:45.972Z,9.25
2023-02-11T20:19:47.430Z,9.20
2023-02-11T20:23:50.022Z,8.60
2023-02-11T20:27:51.482Z,9.75
2023-02-11T20:31:54.088Z,9.40
2023-02-11T20:36:01.642Z,9.30
2023-02-11T20:40:03.393Z,8.80
2023-02-11T20:44:07.466Z,9.75
2023-02-11T20:48:08.909Z,7.95
2023-02-11T20:52:10.533Z,8.40
2023-02-11T20:56:12.385Z,8.00
2023-02-11T21:00:14.120Z,7.70
2023-02-11T21:04:21.820Z,7.00
2023-02-11T21:08:23.249Z,8.18
2023-02-11T21:12:24.680Z,7.07
2023-02-11T21:16:26.665Z,7.88
2023-02-11T21:20:28.193Z,6.68
2023-02-11T21:24:30.943Z,6.88
2023-02-11T21:28:32.849Z,6.55
2023-02-11T21:32:34.355Z,6.93
2023-02-11T21:36:35.823Z,5.72
2023-02-11T21:40:37.713Z,7.05
2023-02-11T21:44:39.211Z,7.13
2023-02-11T21:48:41.035Z,5.80
2023-02-11T21:52:42.672Z,7.40
2023-02-11T21:56:44.533Z,7.28
2023-02-11T22:00:46.018Z,6.72
2023-02-11T22:04:47.530Z,6.32
2023-02-11T22:08:50.391Z,6.70
2023-02-11T22:12:51.871Z,7.68
2023-02-11T22:16:53.324Z,7.68
2023-02-11T22:21:03.305Z,7.25
2023-02-11T22:25:04.964Z,6.45
2023-02-11T22:29:06.515Z,7.68
2023-02-11T22:33:07.902Z,7.50
2023-02-11T22:37:09.322Z,6.93
2023-02-11T22:41:11.745Z,6.32
2023-02-11T22:45:13.212Z,7.55
2023-02-11T22:49:16.320Z,6.65
2023-02-11T22:53:17.722Z,6.93
2023-02-11T22:57:19.109Z,6.78
2023-02-11T23:01:20.767Z,6.68
2023-02-11T23:05:22.241Z,5.97
2023-02-11T23:09:23.647Z,6.93
2023-02-11T23:13:25.061Z,6.45
2023-02-11T23:17:28.821Z,6.22
2023-02-11T23:21:32.848Z,7.55
2023-02-11T23:25:34.873Z,6.93
2023-02-11T23:29:36.328Z,6.00
2023-02-11T23:33:37.744Z,6.20
2023-02-11T23:37:39.179Z,6.30
2023-02-11T23:41:40.642Z,5.07
2023-02-11T23:45:42.032Z,5.78
2023-02-11T23:49:43.492Z,6.03
2023-02-11T23:53:49.239Z,5.03
2023-02-11T23:57:50.669Z,6.43
